logo
Search for airport 
image banner adimage banner adimage banner ad
image banner ad

SIJB - Jk Business Center

Located in Palmas, Brazil

ICAO - SIJB, IATA -

Data provided by Airmate  

General information

Coordinates: S10°11'6" W48°20'15"
Elevation is 1099 feet MSL.
Magnetic variation is -21.474828017° East
View others Airports in Tocatins

Operational data

Special qualification required
Current time UTC:
Current local time:
Weather at : SBPJ - Brigadeiro Lysias Rodrigues ( 12 km )
METAR: SBPJ 241900Z 24003KT 9999 FEW035 34/16 Q1013
TAF: TAF SBPJ 241615Z 2418/2518 21006KT 9999 FEW020 TN21/2508Z TX34/2518Z BECMG 2421/2423 13005KT TEMPO 2512/2518 09012KT RMK PGW
View NOTAMs / SUP AIP / TFR affecting this airport [VIEW]
Communications frequencies: [VIEW]

Runways:

Airport contact information

Address: Palmas Brazil

Satellite view of SIJB